Time,TemperatureF,DewpointF,PressureIn,WindDirection,WindDirectionDegrees,WindSpeedMPH,WindSpeedGustMPH,Humidity,HourlyPrecipIn,Conditions,Clouds,dailyrainin,SoftwareType,DateUTC
2013-05-20 00:01:00,53.0,48.0,30.35,WNW,291,2.0,5.0,84,0.00,,,0.00,,2013-05-20 07:01:00,
2013-05-20 00:11:00,53.0,48.0,30.35,WNW,291,2.0,5.0,84,0.00,,,0.00,,2013-05-20 07:11:00,
2013-05-20 00:21:00,52.0,48.0,30.35,NW,311,1.0,3.0,85,0.00,,,0.00,,2013-05-20 07:21:00,
2013-05-20 00:32:00,52.0,48.0,30.35,NW,311,1.0,3.0,85,0.00,,,0.00,,2013-05-20 07:32:00,
2013-05-20 00:42:00,52.0,48.0,30.35,NW,311,1.0,3.0,85,0.00,,,0.00,,2013-05-20 07:42:00,
2013-05-20 00:52:00,51.0,47.0,30.35,North,3,2.0,3.0,87,0.00,,,0.00,,2013-05-20 07:52:00,
2013-05-20 01:01:00,51.0,47.0,30.35,North,3,2.0,3.0,87,0.00,,,0.00,,2013-05-20 08:01:00,
2013-05-20 01:11:00,51.0,47.0,30.35,North,3,2.0,3.0,87,0.00,,,0.00,,2013-05-20 08:11:00,
2013-05-20 01:21:00,51.0,47.0,30.35,NW,321,1.0,2.0,87,0.00,,,0.00,,2013-05-20 08:21:00,
2013-05-20 01:31:00,51.0,47.0,30.35,NW,321,1.0,2.0,87,0.00,,,0.00,,2013-05-20 08:31:00,
2013-05-20 01:42:00,51.0,47.0,30.35,NW,321,1.0,2.0,87,0.00,,,0.00,,2013-05-20 08:42:00,
2013-05-20 01:52:00,50.0,47.0,30.35,NW,317,3.0,5.0,89,0.00,,,0.00,,2013-05-20 08:52:00,
2013-05-20 02:01:00,50.0,47.0,30.35,NW,317,3.0,5.0,89,0.00,,,0.00,,2013-05-20 09:01:00,
2013-05-20 02:12:00,50.0,47.0,30.35,NW,317,3.0,5.0,89,0.00,,,0.00,,2013-05-20 09:12:00,
2013-05-20 02:21:00,50.0,47.0,30.35,NW,316,0.0,2.0,90,0.00,,,0.00,,2013-05-20 09:21:00,
2013-05-20 02:32:00,50.0,47.0,30.35,NW,316,0.0,2.0,90,0.00,,,0.00,,2013-05-20 09:32:00,
2013-05-20 02:43:00,50.0,47.0,30.35,NW,316,0.0,2.0,90,0.00,,,0.00,,2013-05-20 09:43:00,
2013-05-20 02:52:00,48.0,46.0,30.35,North,353,0.0,2.0,92,0.00,,,0.00,,2013-05-20 09:52:00,
2013-05-20 03:03:00,48.0,46.0,30.35,North,353,0.0,2.0,92,0.00,,,0.00,,2013-05-20 10:03:00,
2013-05-20 03:12:00,48.0,46.0,30.35,North,353,0.0,2.0,92,0.00,,,0.00,,2013-05-20 10:12:00,
2013-05-20 03:22:00,48.0,46.0,30.35,North,352,0.0,1.0,93,0.00,,,0.00,,2013-05-20 10:22:00,
2013-05-20 03:32:00,48.0,46.0,30.35,North,352,0.0,1.0,93,0.00,,,0.00,,2013-05-20 10:32:00,
2013-05-20 03:42:00,48.0,46.0,30.35,North,352,0.0,1.0,93,0.00,,,0.00,,2013-05-20 10:42:00,
2013-05-20 03:52:00,48.0,46.0,30.35,WSW,256,0.0,1.0,93,0.00,,,0.00,,2013-05-20 10:52:00,
2013-05-20 04:02:00,48.0,46.0,30.35,WSW,256,0.0,1.0,93,0.00,,,0.00,,2013-05-20 11:02:00,
2013-05-20 04:12:00,48.0,46.0,30.35,WSW,256,0.0,1.0,93,0.00,,,0.00,,2013-05-20 11:12:00,
2013-05-20 04:21:00,47.0,45.0,30.34,WSW,257,0.0,0.0,94,0.00,,,0.00,,2013-05-20 11:21:00,
2013-05-20 04:32:00,47.0,45.0,30.34,WSW,257,0.0,0.0,94,0.00,,,0.00,,2013-05-20 11:32:00,
2013-05-20 04:42:00,47.0,45.0,30.34,WSW,257,0.0,0.0,94,0.00,,,0.00,,2013-05-20 11:42:00,
2013-05-20 04:52:00,47.0,45.0,30.33,SE,142,0.0,2.0,94,0.00,,,0.00,,2013-05-20 11:52:00,
2013-05-20 05:01:00,47.0,45.0,30.33,SE,142,0.0,2.0,94,0.00,,,0.00,,2013-05-20 12:01:00,
2013-05-20 05:11:00,47.0,45.0,30.33,SE,142,0.0,2.0,94,0.00,,,0.00,,2013-05-20 12:11:00,
2013-05-20 05:21:00,47.0,46.0,30.32,SE,145,0.0,0.0,95,0.00,,,0.00,,2013-05-20 12:21:00,
2013-05-20 05:31:00,47.0,46.0,30.32,SE,145,0.0,0.0,95,0.00,,,0.00,,2013-05-20 12:31:00,
2013-05-20 05:42:00,47.0,46.0,30.32,SE,145,0.0,0.0,95,0.00,,,0.00,,2013-05-20 12:42:00,
2013-05-20 05:52:00,47.0,46.0,30.31,WSW,249,0.0,1.0,96,0.00,,,0.00,,2013-05-20 12:52:00,
2013-05-20 06:01:00,47.0,46.0,30.31,WSW,249,0.0,1.0,96,0.00,,,0.00,,2013-05-20 13:01:00,
2013-05-20 06:11:00,47.0,46.0,30.31,WSW,249,0.0,1.0,96,0.00,,,0.00,,2013-05-20 13:11:00,
2013-05-20 06:22:00,47.0,46.0,30.30,West,266,1.0,3.0,95,0.00,,,0.00,,2013-05-20 13:22:00,
2013-05-20 06:31:00,47.0,46.0,30.30,West,266,1.0,3.0,95,0.00,,,0.00,,2013-05-20 13:31:00,
2013-05-20 06:42:00,47.0,46.0,30.30,West,266,1.0,3.0,95,0.00,,,0.00,,2013-05-20 13:42:00,
2013-05-20 06:52:00,48.0,47.0,30.30,West,263,2.0,3.0,95,0.00,,,0.00,,2013-05-20 13:52:00,
2013-05-20 07:01:00,48.0,47.0,30.30,West,263,2.0,3.0,95,0.00,,,0.00,,2013-05-20 14:01:00,
2013-05-20 07:11:00,48.0,47.0,30.30,West,263,2.0,3.0,95,0.00,,,0.00,,2013-05-20 14:11:00,
2013-05-20 07:21:00,48.0,47.0,30.29,West,274,2.0,3.0,95,0.00,,,0.00,,2013-05-20 14:21:00,
2013-05-20 07:31:00,48.0,47.0,30.29,West,274,2.0,3.0,95,0.00,,,0.00,,2013-05-20 14:31:00,
2013-05-20 07:42:00,48.0,47.0,30.29,West,274,2.0,3.0,95,0.00,,,0.00,,2013-05-20 14:42:00,
2013-05-20 07:52:00,48.0,47.0,30.29,West,274,2.0,3.0,95,0.00,,,0.00,,2013-05-20 14:52:00,
2013-05-20 08:01:00,48.0,47.0,30.28,WSW,256,0.0,1.0,95,0.00,,,0.00,,2013-05-20 15:01:00,
2013-05-20 08:11:00,48.0,47.0,30.28,WSW,256,0.0,1.0,95,0.00,,,0.00,,2013-05-20 15:11:00,
2013-05-20 08:21:00,50.0,48.0,30.28,SE,138,1.0,3.0,94,0.00,,,0.00,,2013-05-20 15:21:00,
2013-05-20 08:33:00,50.0,48.0,30.28,SE,138,1.0,3.0,94,0.00,,,0.00,,2013-05-20 15:33:00,
2013-05-20 08:42:00,50.0,48.0,30.28,SE,138,1.0,3.0,94,0.00,,,0.00,,2013-05-20 15:42:00,
2013-05-20 08:53:00,50.0,47.0,30.27,ESE,120,1.0,4.0,91,0.00,,,0.00,,2013-05-20 15:53:00,
2013-05-20 09:02:00,50.0,47.0,30.27,ESE,120,1.0,4.0,91,0.00,,,0.00,,2013-05-20 16:02:00,
2013-05-20 09:12:00,50.0,47.0,30.27,ESE,120,1.0,4.0,91,0.00,,,0.00,,2013-05-20 16:12:00,
2013-05-20 09:22:00,51.0,48.0,30.27,ESE,115,2.0,4.0,90,0.00,,,0.00,,2013-05-20 16:22:00,
2013-05-20 09:32:00,51.0,48.0,30.27,ESE,115,2.0,4.0,90,0.00,,,0.00,,2013-05-20 16:32:00,
2013-05-20 09:42:00,51.0,48.0,30.27,ESE,115,2.0,4.0,90,0.00,,,0.00,,2013-05-20 16:42:00,
2013-05-20 09:53:00,51.0,48.0,30.26,SW,229,3.0,5.0,88,0.00,,,0.00,,2013-05-20 16:53:00,
2013-05-20 10:02:00,51.0,48.0,30.26,SW,229,3.0,5.0,88,0.00,,,0.00,,2013-05-20 17:02:00,
2013-05-20 10:12:00,51.0,48.0,30.26,SW,229,3.0,5.0,88,0.00,,,0.00,,2013-05-20 17:12:00,
2013-05-20 10:22:00,52.0,49.0,30.24,SSW,193,2.0,5.0,89,0.00,,,0.00,,2013-05-20 17:22:00,
2013-05-20 10:32:00,52.0,49.0,30.24,SSW,193,2.0,5.0,89,0.00,,,0.00,,2013-05-20 17:32:00,
2013-05-20 10:45:00,52.0,49.0,30.24,SSW,193,2.0,5.0,89,0.00,,,0.00,,2013-05-20 17:45:00,
2013-05-20 10:53:00,53.0,49.0,30.23,WSW,243,3.0,7.0,86,0.00,,,0.00,,2013-05-20 17:53:00,
2013-05-20 11:02:00,53.0,49.0,30.23,WSW,243,3.0,7.0,86,0.00,,,0.00,,2013-05-20 18:02:00,
2013-05-20 11:12:00,53.0,49.0,30.23,WSW,243,3.0,7.0,86,0.00,,,0.00,,2013-05-20 18:12:00,
2013-05-20 11:23:00,53.0,49.0,30.22,WSW,249,5.0,9.0,85,0.00,,,0.00,,2013-05-20 18:23:00,
2013-05-20 11:32:00,53.0,49.0,30.22,WSW,249,5.0,9.0,85,0.00,,,0.00,,2013-05-20 18:32:00,
2013-05-20 11:42:00,53.0,49.0,30.22,WSW,249,5.0,9.0,85,0.00,,,0.00,,2013-05-20 18:42:00,
2013-05-20 11:55:00,53.0,48.0,30.21,WSW,255,5.0,10.0,83,0.00,,,0.00,,2013-05-20 18:55:00,
2013-05-20 12:04:00,53.0,48.0,30.21,WSW,255,5.0,10.0,83,0.00,,,0.00,,2013-05-20 19:04:00,
2013-05-20 12:11:00,53.0,48.0,30.21,WSW,255,5.0,10.0,83,0.00,,,0.00,,2013-05-20 19:11:00,
2013-05-20 12:21:00,53.0,49.0,30.20,West,281,5.0,9.0,85,0.00,,,0.00,,2013-05-20 19:21:00,
2013-05-20 12:32:00,53.0,49.0,30.20,West,281,5.0,9.0,85,0.00,,,0.00,,2013-05-20 19:32:00,
2013-05-20 12:42:00,53.0,49.0,30.20,West,281,5.0,9.0,85,0.00,,,0.00,,2013-05-20 19:42:00,
2013-05-20 12:52:00,55.0,49.0,30.19,West,264,5.0,9.0,79,0.00,,,0.00,,2013-05-20 19:52:00,
2013-05-20 13:01:00,55.0,49.0,30.19,West,264,5.0,9.0,79,0.00,,,0.00,,2013-05-20 20:01:00,
2013-05-20 13:11:00,55.0,49.0,30.19,West,264,5.0,9.0,79,0.00,,,0.00,,2013-05-20 20:11:00,
2013-05-20 13:21:00,59.0,50.0,30.16,SSE,150,3.0,7.0,73,0.00,,,0.00,,2013-05-20 20:21:00,
2013-05-20 13:32:00,59.0,50.0,30.16,SSE,150,3.0,7.0,73,0.00,,,0.00,,2013-05-20 20:32:00,
2013-05-20 13:42:00,60.0,49.0,30.15,WNW,284,6.0,8.0,68,0.00,,,0.00,,2013-05-20 20:42:00,
2013-05-20 13:52:00,60.0,49.0,30.15,WNW,284,6.0,8.0,68,0.00,,,0.00,,2013-05-20 20:52:00,
2013-05-20 14:01:00,60.0,49.0,30.15,WNW,284,6.0,8.0,68,0.00,,,0.00,,2013-05-20 21:01:00,
2013-05-20 14:11:00,60.0,49.0,30.15,WNW,284,6.0,8.0,68,0.00,,,0.00,,2013-05-20 21:11:00,
2013-05-20 14:21:00,60.0,49.0,30.14,WNW,288,4.0,7.0,67,0.00,,,0.00,,2013-05-20 21:21:00,
2013-05-20 14:32:00,60.0,49.0,30.14,WNW,288,4.0,7.0,67,0.00,,,0.00,,2013-05-20 21:32:00,
2013-05-20 14:43:00,62.0,49.0,30.12,WSW,247,4.0,7.0,62,0.00,,,0.00,,2013-05-20 21:43:00,
2013-05-20 14:53:00,62.0,49.0,30.12,WSW,247,4.0,7.0,62,0.00,,,0.00,,2013-05-20 21:53:00,
2013-05-20 15:02:00,62.0,49.0,30.12,WSW,247,4.0,7.0,62,0.00,,,0.00,,2013-05-20 22:02:00,
2013-05-20 15:12:00,62.0,49.0,30.12,WSW,247,4.0,7.0,62,0.00,,,0.00,,2013-05-20 22:12:00,
2013-05-20 15:22:00,64.0,47.0,30.10,ENE,67,1.0,4.0,55,0.00,,,0.00,,2013-05-20 22:22:00,
2013-05-20 15:33:00,64.0,47.0,30.10,ENE,67,1.0,4.0,55,0.00,,,0.00,,2013-05-20 22:33:00,
2013-05-20 15:42:00,64.0,47.0,30.10,ENE,67,1.0,4.0,55,0.00,,,0.00,,2013-05-20 22:42:00,
2013-05-20 15:52:00,64.0,49.0,30.08,West,281,5.0,9.0,58,0.00,,,0.00,,2013-05-20 22:52:00,
2013-05-20 16:02:00,64.0,49.0,30.08,West,281,5.0,9.0,58,0.00,,,0.00,,2013-05-20 23:02:00,
2013-05-20 16:12:00,64.0,49.0,30.08,West,281,5.0,9.0,58,0.00,,,0.00,,2013-05-20 23:12:00,
2013-05-20 16:21:00,65.0,49.0,30.06,West,263,4.0,7.0,56,0.00,,,0.00,,2013-05-20 23:21:00,
2013-05-20 16:32:00,65.0,49.0,30.06,West,263,4.0,7.0,56,0.00,,,0.00,,2013-05-20 23:32:00,
2013-05-20 16:42:00,65.0,49.0,30.06,West,263,4.0,7.0,56,0.00,,,0.00,,2013-05-20 23:42:00,
2013-05-20 16:52:00,66.0,49.0,30.04,SW,229,3.0,8.0,54,0.00,,,0.00,,2013-05-20 23:52:00,
2013-05-20 17:01:00,66.0,49.0,30.04,SW,229,3.0,8.0,54,0.00,,,0.00,,2013-05-21 00:01:00,
2013-05-20 17:11:00,66.0,49.0,30.04,SW,229,3.0,8.0,54,0.00,,,0.00,,2013-05-21 00:11:00,
2013-05-20 17:21:00,66.0,49.0,30.02,SE,136,4.0,8.0,54,0.00,,,0.00,,2013-05-21 00:21:00,
2013-05-20 17:31:00,66.0,49.0,30.02,SE,136,4.0,8.0,54,0.00,,,0.00,,2013-05-21 00:31:00,
2013-05-20 17:42:00,67.0,49.0,30.01,SSE,160,0.0,5.0,53,0.00,,,0.00,,2013-05-21 00:42:00,
2013-05-20 17:52:00,67.0,49.0,30.01,SSE,160,0.0,5.0,53,0.00,,,0.00,,2013-05-21 00:52:00,
2013-05-20 18:01:00,67.0,49.0,30.01,SSE,160,0.0,5.0,53,0.00,,,0.00,,2013-05-21 01:01:00,
2013-05-20 18:11:00,67.0,49.0,30.01,SSE,160,0.0,5.0,53,0.00,,,0.00,,2013-05-21 01:11:00,
2013-05-20 18:21:00,67.0,48.0,29.99,SSW,200,2.0,4.0,50,0.00,,,0.00,,2013-05-21 01:21:00,
2013-05-20 18:32:00,67.0,48.0,29.99,SSW,200,2.0,4.0,50,0.00,,,0.00,,2013-05-21 01:32:00,
2013-05-20 18:42:00,62.0,50.0,29.98,NNW,335,6.0,10.0,64,0.00,,,0.00,,2013-05-21 01:42:00,
2013-05-20 18:52:00,62.0,50.0,29.98,NNW,335,6.0,10.0,64,0.00,,,0.00,,2013-05-21 01:52:00,
2013-05-20 19:01:00,62.0,50.0,29.98,NNW,335,6.0,10.0,64,0.00,,,0.00,,2013-05-21 02:01:00,
2013-05-20 19:11:00,62.0,50.0,29.98,NNW,335,6.0,10.0,64,0.00,,,0.00,,2013-05-21 02:11:00,
2013-05-20 19:21:00,60.0,49.0,29.97,NNW,331,5.0,11.0,67,0.00,,,0.00,,2013-05-21 02:21:00,
2013-05-20 19:32:00,60.0,49.0,29.97,NNW,331,5.0,11.0,67,0.00,,,0.00,,2013-05-21 02:32:00,
2013-05-20 19:42:00,58.0,49.0,29.96,NNE,13,4.0,10.0,71,0.00,,,0.00,,2013-05-21 02:42:00,
2013-05-20 19:52:00,58.0,49.0,29.96,NNE,13,4.0,10.0,71,0.00,,,0.00,,2013-05-21 02:52:00,
2013-05-20 20:01:00,58.0,49.0,29.96,NNE,13,4.0,10.0,71,0.00,,,0.00,,2013-05-21 03:01:00,
2013-05-20 20:11:00,58.0,49.0,29.96,NNE,13,4.0,10.0,71,0.00,,,0.00,,2013-05-21 03:11:00,
2013-05-20 20:21:00,56.0,48.0,29.96,NNW,334,3.0,9.0,75,0.00,,,0.00,,2013-05-21 03:21:00,
2013-05-20 20:33:00,56.0,48.0,29.96,NNW,334,3.0,9.0,75,0.00,,,0.00,,2013-05-21 03:33:00,
2013-05-20 20:43:00,55.0,48.0,29.96,NNW,340,5.0,10.0,77,0.00,,,0.00,,2013-05-21 03:43:00,
2013-05-20 20:53:00,55.0,48.0,29.96,NNW,340,5.0,10.0,77,0.00,,,0.00,,2013-05-21 03:53:00,
2013-05-20 21:03:00,55.0,48.0,29.96,NNW,340,5.0,10.0,77,0.00,,,0.00,,2013-05-21 04:03:00,
2013-05-20 21:12:00,55.0,48.0,29.96,NNW,340,5.0,10.0,77,0.00,,,0.00,,2013-05-21 04:12:00,
2013-05-20 21:23:00,54.0,47.0,29.95,NW,306,5.0,10.0,78,0.00,,,0.00,,2013-05-21 04:23:00,
2013-05-20 21:33:00,54.0,47.0,29.95,NW,306,5.0,10.0,78,0.00,,,0.00,,2013-05-21 04:33:00,
2013-05-20 21:42:00,54.0,47.0,29.95,NW,306,5.0,10.0,78,0.00,,,0.00,,2013-05-21 04:42:00,
2013-05-20 21:52:00,54.0,47.0,29.94,North,6,4.0,6.0,78,0.00,,,0.00,,2013-05-21 04:52:00,
2013-05-20 22:02:00,54.0,47.0,29.94,North,6,4.0,6.0,78,0.00,,,0.00,,2013-05-21 05:02:00,
2013-05-20 22:12:00,54.0,47.0,29.94,North,6,4.0,6.0,78,0.00,,,0.00,,2013-05-21 05:12:00,
2013-05-20 22:21:00,54.0,47.0,29.93,NNW,329,4.0,7.0,78,0.00,,,0.00,,2013-05-21 05:21:00,
2013-05-20 22:31:00,54.0,47.0,29.93,NNW,329,4.0,7.0,78,0.00,,,0.00,,2013-05-21 05:31:00,
2013-05-20 22:42:00,53.0,47.0,29.92,NE,48,2.0,5.0,80,0.00,,,0.00,,2013-05-21 05:42:00,
2013-05-20 22:52:00,53.0,47.0,29.92,NE,48,2.0,5.0,80,0.00,,,0.00,,2013-05-21 05:52:00,
2013-05-20 23:01:00,53.0,47.0,29.92,NE,48,2.0,5.0,80,0.00,,,0.00,,2013-05-21 06:01:00,
2013-05-20 23:11:00,53.0,47.0,29.92,NE,48,2.0,5.0,80,0.00,,,0.00,,2013-05-21 06:11:00,
2013-05-20 23:21:00,54.0,48.0,29.91,NNE,23,2.0,6.0,79,0.00,,,0.00,,2013-05-21 06:21:00,
2013-05-20 23:32:00,54.0,48.0,29.91,NNE,23,2.0,6.0,79,0.00,,,0.00,,2013-05-21 06:32:00,
2013-05-20 23:42:00,54.0,48.0,29.91,NNE,23,2.0,6.0,79,0.00,,,0.00,,2013-05-21 06:42:00,
2013-05-20 23:52:00,54.0,48.0,29.91,East,81,3.0,5.0,79,0.00,,,0.00,,2013-05-21 06:52:00,